createdAt,value
2023-04-10T00:01:35.680Z,59.80
2023-04-10T00:04:03.610Z,60.60
2023-04-10T00:06:31.804Z,59.90
2023-04-10T00:08:59.360Z,59.90
2023-04-10T00:11:26.973Z,60.00
2023-04-10T00:13:54.634Z,60.00
2023-04-10T00:16:21.903Z,59.90
2023-04-10T00:18:48.961Z,60.00
2023-04-10T00:21:16.009Z,59.90
2023-04-10T00:23:43.800Z,59.80
2023-04-10T00:26:11.171Z,59.60
2023-04-10T00:28:38.620Z,59.70
2023-04-10T00:31:06.428Z,59.70
2023-04-10T00:33:33.468Z,59.70
2023-04-10T00:36:00.472Z,59.70
2023-04-10T00:38:27.670Z,59.70
2023-04-10T00:40:54.723Z,59.70
2023-04-10T00:43:22.452Z,59.70
2023-04-10T00:45:50.473Z,59.70
2023-04-10T00:48:18.349Z,59.70
2023-04-10T00:50:46.957Z,59.80
2023-04-10T00:53:15.882Z,59.70
2023-04-10T00:55:44.439Z,59.80
2023-04-10T00:58:14.700Z,59.70
2023-04-10T01:00:42.326Z,59.80
2023-04-10T01:03:11.356Z,59.60
2023-04-10T01:06:03.674Z,59.80
2023-04-10T01:09:01.161Z,59.70
2023-04-10T01:11:46.943Z,59.70
2023-04-10T01:14:19.020Z,59.70
2023-04-10T01:16:58.729Z,59.50
2023-04-10T01:19:46.684Z,59.60
2023-04-10T01:22:16.349Z,59.60
2023-04-10T01:24:46.636Z,59.60
2023-04-10T01:27:32.947Z,59.70
2023-04-10T01:30:02.657Z,59.60
2023-04-10T01:32:34.188Z,59.70
2023-04-10T01:35:06.722Z,59.60
2023-04-10T01:37:39.166Z,59.50
2023-04-10T01:40:10.491Z,59.60
2023-04-10T01:42:45.380Z,59.60
2023-04-10T01:45:18.518Z,59.50
2023-04-10T01:47:48.722Z,59.60
2023-04-10T01:50:16.884Z,59.90
2023-04-10T01:52:45.420Z,59.80
2023-04-10T01:55:39.807Z,59.90
2023-04-10T01:58:09.691Z,59.80
2023-04-10T02:00:41.870Z,59.90
2023-04-10T02:03:11.392Z,59.90
2023-04-10T02:06:05.359Z,59.90
2023-04-10T02:08:40.348Z,59.80
2023-04-10T02:11:35.850Z,59.60
2023-04-10T02:14:08.382Z,59.50
2023-04-10T02:16:38.301Z,59.50
2023-04-10T02:19:06.921Z,59.50
2023-04-10T02:21:35.150Z,59.70
2023-04-10T02:24:02.274Z,59.70
2023-04-10T02:26:30.460Z,59.80
2023-04-10T02:28:57.685Z,60.00
2023-04-10T02:31:25.129Z,60.00
2023-04-10T02:33:52.484Z,60.00
2023-04-10T02:36:19.653Z,59.80
2023-04-10T02:38:46.616Z,60.50
2023-04-10T02:41:13.898Z,59.70
2023-04-10T02:43:41.834Z,59.60
2023-04-10T02:46:08.916Z,59.60
2023-04-10T02:48:39.498Z,59.70
2023-04-10T02:51:07.621Z,59.70
2023-04-10T02:53:35.229Z,59.70
2023-04-10T02:56:02.604Z,59.60
2023-04-10T02:58:30.689Z,59.70
2023-04-10T03:00:58.550Z,59.60
2023-04-10T03:03:55.887Z,59.70
2023-04-10T03:06:30.376Z,59.60
2023-04-10T03:08:58.185Z,59.60
2023-04-10T03:11:27.293Z,59.60
2023-04-10T03:13:54.916Z,59.60
2023-04-10T03:16:22.786Z,59.50
2023-04-10T03:18:49.991Z,59.70
2023-04-10T03:21:17.343Z,59.70
2023-04-10T03:23:44.259Z,59.70
2023-04-10T03:26:12.581Z,59.70
2023-04-10T03:28:39.973Z,59.70
2023-04-10T03:31:10.760Z,59.60
2023-04-10T03:33:39.261Z,59.50
2023-04-10T03:36:09.014Z,59.60
2023-04-10T03:38:36.283Z,59.70
2023-04-10T03:41:05.639Z,59.60
2023-04-10T03:43:34.398Z,59.60
2023-04-10T03:46:03.640Z,59.70
2023-04-10T03:48:32.445Z,59.60
2023-04-10T03:50:59.566Z,59.50
2023-04-10T03:53:26.573Z,59.50
2023-04-10T03:55:54.672Z,59.30
2023-04-10T03:58:24.485Z,59.10
2023-04-10T04:00:53.191Z,59.10
2023-04-10T04:03:30.675Z,59.10
2023-04-10T04:06:00.885Z,59.30
2023-04-10T04:08:40.526Z,59.50
2023-04-10T04:11:21.252Z,59.70
2023-04-10T04:14:17.588Z,59.90
2023-04-10T04:17:00.636Z,60.20
2023-04-10T04:19:55.731Z,60.10
2023-04-10T04:22:46.410Z,60.00
2023-04-10T04:25:36.700Z,60.10
2023-04-10T04:28:33.741Z,60.10
2023-04-10T04:31:16.336Z,60.10
2023-04-10T04:34:01.946Z,60.10
2023-04-10T04:36:29.277Z,60.20
2023-04-10T04:39:13.511Z,60.20
2023-04-10T04:41:53.442Z,60.30
2023-04-10T04:44:49.408Z,60.10
2023-04-10T04:47:25.754Z,60.00
2023-04-10T04:50:17.509Z,60.10
2023-04-10T04:53:08.083Z,59.90
2023-04-10T04:56:13.669Z,60.00
2023-04-10T04:58:59.293Z,60.10
2023-04-10T05:01:38.091Z,60.20
2023-04-10T05:04:14.374Z,60.20
2023-04-10T05:06:56.854Z,60.40
2023-04-10T05:09:40.055Z,60.50
2023-04-10T05:12:20.385Z,60.50
2023-04-10T05:15:03.778Z,60.50
2023-04-10T05:17:51.259Z,60.90
2023-04-10T05:20:38.648Z,61.00
2023-04-10T05:23:20.517Z,61.20
2023-04-10T05:25:51.912Z,61.30
2023-04-10T05:28:41.733Z,61.60
2023-04-10T05:31:36.433Z,62.00
2023-04-10T05:34:17.150Z,62.30
2023-04-10T05:37:09.598Z,62.40
2023-04-10T05:39:47.591Z,62.60
2023-04-10T05:42:43.750Z,62.60
2023-04-10T05:45:46.196Z,62.80
2023-04-10T05:48:26.365Z,63.00
2023-04-10T05:51:16.337Z,62.80
2023-04-10T05:54:15.398Z,62.60
2023-04-10T05:57:08.620Z,62.80
2023-04-10T05:59:56.535Z,63.10
2023-04-10T06:02:43.856Z,63.40
2023-04-10T06:05:19.905Z,63.60
2023-04-10T06:07:47.256Z,64.90
2023-04-10T06:10:15.250Z,63.90
2023-04-10T06:12:42.233Z,64.00
2023-04-10T06:15:11.592Z,64.10
2023-04-10T06:17:44.511Z,64.20
2023-04-10T06:20:12.392Z,64.40
2023-04-10T06:22:40.870Z,64.50
2023-04-10T06:25:08.311Z,64.60
2023-04-10T06:27:36.019Z,64.70
2023-04-10T06:30:05.224Z,64.70
2023-04-10T06:32:32.864Z,64.60
2023-04-10T06:35:00.746Z,64.60
2023-04-10T06:37:32.854Z,64.60
2023-04-10T06:40:08.331Z,64.70
2023-04-10T06:42:37.460Z,64.70
2023-04-10T06:45:14.355Z,64.90
2023-04-10T06:47:41.438Z,65.00
2023-04-10T06:50:09.385Z,64.90
2023-04-10T06:52:36.984Z,64.80
2023-04-10T06:55:05.710Z,64.70
2023-04-10T06:57:32.675Z,63.70
2023-04-10T07:00:01.870Z,63.10
2023-04-10T07:02:29.056Z,62.00
2023-04-10T07:04:56.993Z,60.70
2023-04-10T07:07:24.455Z,59.50
2023-04-10T07:09:51.415Z,58.20
2023-04-10T07:12:18.420Z,57.30
2023-04-10T07:14:45.404Z,56.10
2023-04-10T07:17:12.378Z,54.30
2023-04-10T07:19:39.403Z,52.80
2023-04-10T07:22:07.386Z,52.10
2023-04-10T07:24:34.430Z,51.70
2023-04-10T07:27:02.468Z,50.60
2023-04-10T07:29:30.303Z,49.90
2023-04-10T07:31:57.400Z,49.20
2023-04-10T07:34:25.842Z,48.20
2023-04-10T07:36:53.245Z,47.00
2023-04-10T07:39:20.698Z,46.40
2023-04-10T07:41:48.933Z,45.90
2023-04-10T07:44:15.914Z,44.80
2023-04-10T07:46:43.822Z,44.00
2023-04-10T07:49:10.847Z,43.40
2023-04-10T07:51:38.794Z,42.50
2023-04-10T07:54:06.219Z,41.30
2023-04-10T07:56:33.130Z,41.20
2023-04-10T07:59:01.135Z,40.90
2023-04-10T08:01:31.311Z,41.10
2023-04-10T08:03:59.356Z,41.40
2023-04-10T08:06:27.886Z,41.50
2023-04-10T08:08:56.016Z,41.40
2023-04-10T08:11:31.470Z,40.70
2023-04-10T08:14:03.713Z,40.90
2023-04-10T08:16:34.425Z,40.80
2023-04-10T08:19:02.367Z,40.20
2023-04-10T08:21:31.884Z,40.00
2023-04-10T08:24:03.860Z,39.90
2023-04-10T08:26:30.974Z,39.60
2023-04-10T08:28:59.897Z,39.00
2023-04-10T08:31:28.734Z,38.80
2023-04-10T08:33:57.171Z,38.40
2023-04-10T08:36:26.725Z,38.00
2023-04-10T08:38:53.662Z,36.80
2023-04-10T08:41:21.544Z,36.60
2023-04-10T08:43:49.918Z,36.10
2023-04-10T08:46:18.149Z,35.20
2023-04-10T08:48:54.770Z,34.90
2023-04-10T08:51:28.997Z,34.10
2023-04-10T08:54:01.471Z,32.60
2023-04-10T08:56:31.428Z,32.90
2023-04-10T08:58:58.505Z,32.40
2023-04-10T09:01:25.797Z,32.30
2023-04-10T09:03:54.697Z,31.90
2023-04-10T09:06:21.973Z,31.00
2023-04-10T09:08:48.891Z,31.10
2023-04-10T09:11:15.960Z,30.80
2023-04-10T09:13:44.200Z,31.00
2023-04-10T09:16:12.058Z,30.90
2023-04-10T09:18:51.394Z,31.10
2023-04-10T09:21:22.193Z,30.10
2023-04-10T09:23:49.623Z,30.50
2023-04-10T09:26:33.807Z,30.90
2023-04-10T09:29:06.227Z,30.30
2023-04-10T09:31:40.364Z,30.00
2023-04-10T09:34:07.347Z,30.00
2023-04-10T09:36:34.868Z,30.00
2023-04-10T09:39:02.016Z,30.10
2023-04-10T09:41:29.214Z,30.00
2023-04-10T09:44:14.776Z,30.20
2023-04-10T09:46:42.190Z,29.80
2023-04-10T09:49:10.011Z,28.80
2023-04-10T09:51:39.562Z,29.70
2023-04-10T09:54:06.968Z,29.40
2023-04-10T09:56:40.264Z,29.50
2023-04-10T09:59:08.086Z,29.60
2023-04-10T10:01:37.860Z,29.30
2023-04-10T10:04:05.507Z,29.40
2023-04-10T10:06:33.562Z,29.60
2023-04-10T10:09:05.360Z,29.90
2023-04-10T10:11:36.297Z,29.70
2023-04-10T10:14:09.348Z,29.80
2023-04-10T10:16:43.868Z,29.30
2023-04-10T10:19:17.907Z,29.10
2023-04-10T10:21:45.900Z,29.10
2023-04-10T10:24:14.807Z,29.60
2023-04-10T10:26:44.206Z,29.90
2023-04-10T10:29:11.504Z,29.90
2023-04-10T10:31:38.860Z,29.40
2023-04-10T10:34:09.317Z,29.20
2023-04-10T10:36:37.675Z,28.90
2023-04-10T10:39:25.214Z,28.70
2023-04-10T10:42:31.989Z,28.50
2023-04-10T10:45:08.654Z,29.00
2023-04-10T10:47:45.529Z,29.30
2023-04-10T10:50:12.576Z,29.50
2023-04-10T10:52:52.943Z,29.90
2023-04-10T10:55:23.105Z,29.90
2023-04-10T10:58:00.739Z,29.60
2023-04-10T11:00:50.850Z,29.80
2023-04-10T11:03:18.053Z,29.60
2023-04-10T11:05:56.518Z,30.00
2023-04-10T11:08:37.051Z,30.20
2023-04-10T11:11:05.994Z,30.60
2023-04-10T11:14:03.107Z,30.70
2023-04-10T11:16:41.091Z,30.80
2023-04-10T11:19:16.264Z,31.20
2023-04-10T11:22:09.642Z,30.20
2023-04-10T11:25:03.572Z,29.20
2023-04-10T11:27:45.709Z,28.90
2023-04-10T11:30:31.874Z,28.80
2023-04-10T11:33:00.713Z,29.00
2023-04-10T11:35:28.915Z,29.40
2023-04-10T11:38:13.434Z,29.00
2023-04-10T11:41:02.367Z,29.00
2023-04-10T11:43:29.568Z,29.20
2023-04-10T11:46:08.866Z,29.40
2023-04-10T11:48:37.938Z,29.60
2023-04-10T11:51:09.532Z,30.00
2023-04-10T11:53:39.255Z,30.00
2023-04-10T11:56:09.355Z,30.10
2023-04-10T11:58:37.099Z,30.30
2023-04-10T12:01:05.901Z,30.40
2023-04-10T12:03:36.351Z,30.20
2023-04-10T12:06:04.917Z,30.30
2023-04-10T12:08:36.994Z,30.70
2023-04-10T12:11:04.187Z,30.20
2023-04-10T12:13:32.146Z,30.60
2023-04-10T12:16:01.690Z,30.30
2023-04-10T12:18:30.434Z,30.80
2023-04-10T12:20:59.449Z,30.40
2023-04-10T12:23:27.916Z,30.00
2023-04-10T12:26:15.333Z,30.40
2023-04-10T12:28:53.889Z,30.70
2023-04-10T12:31:47.574Z,30.40
2023-04-10T12:34:18.919Z,30.70
2023-04-10T12:36:53.358Z,30.50
2023-04-10T12:39:25.597Z,30.80
2023-04-10T12:41:52.909Z,31.00
2023-04-10T12:44:20.736Z,31.00
2023-04-10T12:46:50.996Z,30.90
2023-04-10T12:49:19.011Z,31.20
2023-04-10T12:51:52.949Z,31.00
2023-04-10T12:54:33.372Z,30.60
2023-04-10T12:57:04.683Z,30.80
2023-04-10T12:59:32.783Z,30.60
2023-04-10T13:01:59.940Z,30.40
2023-04-10T13:04:30.792Z,30.60
2023-04-10T13:06:57.804Z,30.90
2023-04-10T13:09:27.959Z,30.50
2023-04-10T13:11:57.779Z,30.70
2023-04-10T13:14:27.936Z,31.00
2023-04-10T13:16:57.710Z,30.80
2023-04-10T13:19:24.677Z,31.10
2023-04-10T13:21:52.064Z,30.60
2023-04-10T13:24:19.038Z,30.70
2023-04-10T13:26:46.153Z,30.50
2023-04-10T13:29:13.926Z,29.60
2023-04-10T13:31:41.144Z,29.50
2023-04-10T13:34:08.278Z,30.00
2023-04-10T13:36:37.855Z,29.60
2023-04-10T13:39:04.919Z,30.00
2023-04-10T13:41:32.001Z,29.40
2023-04-10T13:43:58.992Z,29.20
2023-04-10T13:46:26.272Z,29.70
2023-04-10T13:48:55.587Z,30.20
2023-04-10T13:51:22.939Z,30.50
2023-04-10T13:53:50.998Z,30.00
2023-04-10T13:56:18.062Z,30.30
2023-04-10T13:58:46.494Z,30.90
2023-04-10T14:01:13.512Z,30.00
2023-04-10T14:03:40.871Z,30.30
2023-04-10T14:06:08.046Z,30.10
2023-04-10T14:08:35.082Z,30.40
2023-04-10T14:11:02.065Z,30.70
2023-04-10T14:13:30.470Z,30.00
2023-04-10T14:15:57.651Z,29.60
2023-04-10T14:18:24.590Z,29.40
2023-04-10T14:20:51.484Z,28.70
2023-04-10T14:23:18.704Z,28.30
2023-04-10T14:25:46.437Z,29.20
2023-04-10T14:28:25.635Z,28.90
2023-04-10T14:30:52.939Z,29.50
2023-04-10T14:33:20.803Z,28.80
2023-04-10T14:35:48.502Z,28.50
2023-04-10T14:38:17.179Z,29.10
2023-04-10T14:40:48.575Z,29.60
2023-04-10T14:43:16.379Z,29.70
2023-04-10T14:45:43.840Z,30.00
2023-04-10T14:48:13.538Z,29.30
2023-04-10T14:50:41.052Z,28.60
2023-04-10T14:53:10.053Z,28.80
2023-04-10T14:55:37.779Z,28.80
2023-04-10T14:58:07.583Z,29.10
2023-04-10T15:00:35.602Z,29.20
2023-04-10T15:03:05.420Z,29.60
2023-04-10T15:05:33.020Z,29.60
2023-04-10T15:08:00.317Z,29.20
2023-04-10T15:10:30.758Z,29.50
2023-04-10T15:12:57.806Z,29.10
2023-04-10T15:15:24.965Z,29.30
2023-04-10T15:17:53.311Z,29.20
2023-04-10T15:20:20.518Z,29.40
2023-04-10T15:22:48.451Z,29.70
2023-04-10T15:25:16.020Z,29.80
2023-04-10T15:27:44.975Z,29.60
2023-04-10T15:30:12.612Z,29.70
2023-04-10T15:32:39.898Z,29.80
2023-04-10T15:35:07.528Z,30.00
2023-04-10T15:37:37.571Z,29.90
2023-04-10T15:40:06.459Z,30.00
2023-04-10T15:42:34.700Z,30.00
2023-04-10T15:45:01.848Z,29.90
2023-04-10T15:47:28.992Z,29.40
2023-04-10T15:49:57.401Z,29.60
2023-04-10T15:52:24.404Z,29.60
2023-04-10T15:54:53.013Z,29.50
2023-04-10T15:57:20.886Z,29.50
2023-04-10T15:59:51.265Z,29.70
2023-04-10T16:02:18.247Z,29.90
2023-04-10T16:04:45.374Z,30.10
2023-04-10T16:07:12.349Z,30.20
2023-04-10T16:09:41.504Z,30.40
2023-04-10T16:12:08.649Z,30.60
2023-04-10T16:14:36.425Z,30.90
2023-04-10T16:17:03.460Z,30.90
2023-04-10T16:19:31.557Z,30.80
2023-04-10T16:21:58.504Z,30.80
2023-04-10T16:24:25.839Z,30.60
2023-04-10T16:26:54.229Z,30.80
2023-04-10T16:29:21.402Z,31.10
2023-04-10T16:31:48.657Z,31.30
2023-04-10T16:34:15.829Z,31.50
2023-04-10T16:36:42.991Z,31.50
2023-04-10T16:39:10.058Z,31.80
2023-04-10T16:41:37.290Z,31.70
2023-04-10T16:44:04.283Z,31.80
2023-04-10T16:46:33.657Z,31.80
2023-04-10T16:49:01.632Z,31.80
2023-04-10T16:51:31.322Z,32.00
2023-04-10T16:53:58.324Z,31.90
2023-04-10T16:56:25.635Z,32.10
2023-04-10T16:58:53.076Z,32.30
2023-04-10T17:01:26.083Z,32.10
2023-04-10T17:03:54.328Z,32.20
2023-04-10T17:06:22.915Z,32.40
2023-04-10T17:08:51.633Z,32.40
2023-04-10T17:11:18.704Z,32.50
2023-04-10T17:13:46.130Z,32.60
2023-04-10T17:16:13.210Z,32.50
2023-04-10T17:18:40.950Z,32.60
2023-04-10T17:21:13.645Z,32.80
2023-04-10T17:23:40.965Z,32.60
2023-04-10T17:26:16.147Z,32.80
2023-04-10T17:28:45.434Z,32.90
2023-04-10T17:31:14.269Z,33.00
2023-04-10T17:33:44.727Z,33.20
2023-04-10T17:36:12.969Z,33.20
2023-04-10T17:38:41.445Z,33.30
2023-04-10T17:41:09.735Z,33.40
2023-04-10T17:43:40.824Z,33.50
2023-04-10T17:46:07.943Z,33.60
2023-04-10T17:48:40.037Z,33.60
2023-04-10T17:51:07.906Z,33.90
2023-04-10T17:53:34.976Z,34.10
2023-04-10T17:56:05.504Z,34.00
2023-04-10T17:58:32.749Z,34.20
2023-04-10T18:01:00.605Z,34.50
2023-04-10T18:03:27.989Z,34.60
2023-04-10T18:05:56.149Z,34.80
2023-04-10T18:08:23.204Z,34.80
2023-04-10T18:10:50.177Z,35.20
2023-04-10T18:13:17.163Z,35.20
2023-04-10T18:15:44.176Z,35.30
2023-04-10T18:18:11.321Z,35.50
2023-04-10T18:20:38.416Z,35.60
2023-04-10T18:23:06.565Z,35.50
2023-04-10T18:25:33.642Z,35.90
2023-04-10T18:30:30.742Z,36.00
2023-04-10T18:32:57.865Z,36.20
2023-04-10T18:35:24.919Z,36.00
2023-04-10T18:37:52.145Z,36.30
2023-04-10T18:40:19.611Z,36.50
2023-04-10T18:42:46.631Z,36.60
2023-04-10T18:45:13.616Z,36.80
2023-04-10T18:47:40.780Z,36.90
2023-04-10T18:50:12.491Z,37.00
2023-04-10T18:52:40.221Z,37.10
2023-04-10T18:55:08.734Z,37.30
2023-04-10T18:57:37.529Z,37.40
2023-04-10T19:00:08.250Z,37.40
2023-04-10T19:02:35.686Z,37.50
2023-04-10T19:05:03.879Z,37.60
2023-04-10T19:07:34.939Z,37.90
2023-04-10T19:10:02.665Z,37.90
2023-04-10T19:12:29.956Z,37.80
2023-04-10T19:14:56.898Z,37.90
2023-04-10T19:17:25.019Z,38.20
2023-04-10T19:19:53.331Z,38.20
2023-04-10T19:22:21.730Z,38.10
2023-04-10T19:24:50.689Z,38.00
2023-04-10T19:27:17.946Z,38.30
2023-04-10T19:29:45.068Z,38.50
2023-04-10T19:32:12.140Z,38.70
2023-04-10T19:34:39.113Z,38.80
2023-04-10T19:37:06.142Z,38.60
2023-04-10T19:39:34.456Z,38.50
2023-04-10T19:42:03.351Z,38.50
2023-04-10T19:44:30.928Z,38.60
2023-04-10T19:46:57.935Z,38.60
2023-04-10T19:49:26.227Z,38.60
2023-04-10T19:51:55.026Z,38.50
2023-04-10T19:54:22.878Z,38.80
2023-04-10T19:56:50.213Z,38.80
2023-04-10T19:59:17.596Z,39.10
2023-04-10T20:01:44.710Z,39.30
2023-04-10T20:04:12.033Z,39.30
2023-04-10T20:06:39.362Z,39.30
2023-04-10T20:09:07.402Z,39.90
2023-04-10T20:11:35.187Z,40.20
2023-04-10T20:14:02.221Z,39.90
2023-04-10T20:16:29.167Z,40.20
2023-04-10T20:18:56.510Z,40.30
2023-04-10T20:21:24.073Z,40.50
2023-04-10T20:23:51.072Z,40.70
2023-04-10T20:26:17.990Z,40.50
2023-04-10T20:28:45.212Z,40.50
2023-04-10T20:31:13.203Z,40.90
2023-04-10T20:33:40.947Z,41.00
2023-04-10T20:36:08.438Z,41.10
2023-04-10T20:38:35.417Z,41.00
2023-04-10T20:41:03.669Z,41.10
2023-04-10T20:43:34.113Z,41.20
2023-04-10T20:46:05.354Z,42.00
2023-04-10T20:48:32.537Z,41.50
2023-04-10T20:50:59.579Z,41.50
2023-04-10T20:53:29.418Z,42.00
2023-04-10T20:55:57.468Z,41.40
2023-04-10T20:58:24.458Z,42.00
2023-04-10T21:00:52.921Z,42.30
2023-04-10T21:03:20.683Z,42.40
2023-04-10T21:05:52.113Z,42.30
2023-04-10T21:08:20.653Z,42.30
2023-04-10T21:10:49.614Z,42.40
2023-04-10T21:13:16.871Z,42.50
2023-04-10T21:15:46.392Z,42.60
2023-04-10T21:18:14.491Z,42.60
2023-04-10T21:20:43.395Z,42.40
2023-04-10T21:23:10.402Z,42.60
2023-04-10T21:25:39.205Z,43.00
2023-04-10T21:28:06.269Z,42.90
2023-04-10T21:30:33.334Z,42.80
2023-04-10T21:33:00.256Z,42.80
2023-04-10T21:35:27.384Z,43.20
2023-04-10T21:37:57.673Z,43.20
2023-04-10T21:40:26.235Z,43.40
2023-04-10T21:42:56.637Z,43.60
2023-04-10T21:45:24.268Z,43.70
2023-04-10T21:47:54.081Z,43.90
2023-04-10T21:50:21.628Z,43.90
2023-04-10T21:52:48.704Z,44.00
2023-04-10T21:55:15.859Z,44.10
2023-04-10T21:57:43.014Z,44.20
2023-04-10T22:00:10.365Z,44.00
2023-04-10T22:02:37.517Z,44.00
2023-04-10T22:05:13.242Z,44.30
2023-04-10T22:07:41.204Z,44.40
2023-04-10T22:10:08.770Z,44.70
2023-04-10T22:12:36.003Z,44.70
2023-04-10T22:15:03.853Z,44.70
2023-04-10T22:17:30.779Z,44.60
2023-04-10T22:19:57.735Z,44.90
2023-04-10T22:22:24.741Z,45.20
2023-04-10T22:24:51.786Z,45.40
2023-04-10T22:27:18.814Z,45.40
2023-04-10T22:29:56.265Z,45.30
2023-04-10T22:32:29.810Z,45.20
2023-04-10T22:34:58.964Z,45.50
2023-04-10T22:37:26.679Z,45.70
2023-04-10T22:39:56.217Z,45.70
2023-04-10T22:42:23.909Z,45.80
2023-04-10T22:44:51.103Z,45.80
2023-04-10T22:47:18.202Z,46.00
2023-04-10T22:49:45.342Z,46.00
2023-04-10T22:52:13.275Z,46.90
2023-04-10T22:54:43.032Z,46.90
2023-04-10T22:57:10.522Z,46.40
2023-04-10T22:59:38.018Z,46.30
2023-04-10T23:02:05.298Z,46.40
2023-04-10T23:04:32.662Z,46.50
2023-04-10T23:06:59.668Z,46.60
2023-04-10T23:09:26.687Z,46.70
2023-04-10T23:11:53.677Z,46.70
2023-04-10T23:14:20.777Z,46.80
2023-04-10T23:16:47.994Z,46.80
2023-04-10T23:19:15.501Z,46.80
2023-04-10T23:21:42.575Z,46.80
2023-04-10T23:24:09.500Z,46.80
2023-04-10T23:26:36.448Z,46.80
2023-04-10T23:29:03.455Z,46.80
2023-04-10T23:31:30.535Z,46.90
2023-04-10T23:33:58.824Z,46.80
2023-04-10T23:36:25.752Z,46.70
2023-04-10T23:38:53.289Z,46.60
2023-04-10T23:41:21.528Z,46.70
2023-04-10T23:43:48.554Z,46.60
2023-04-10T23:46:15.523Z,46.80
2023-04-10T23:48:42.649Z,46.80
2023-04-10T23:51:09.701Z,47.00
2023-04-10T23:53:36.705Z,47.20
2023-04-10T23:56:03.732Z,47.30
2023-04-10T23:58:32.177Z,47.30
